Time;durP1;ratioP1;P1;durP2;ratioP2;P2;SDS_P1;SDS_P2;PMS_P1;PMS_P2;Temp;Humidity;BMP_temperature;BMP_pressure;BME280_temperature;BME280_humidity;BME280_pressure;Samples;Min_cycle;Max_cycle;Signal;HPM_P1;HPM_P2
2022/02/10 00:07:05;;;;;;;63.00;53.33;;;;;;;;;;4955661;29;20090;-81
2022/02/10 00:17:46;;;;;;;63.92;53.47;;;;;;;;;;4970881;29;20126;-81
2022/02/10 00:20:20;;;;;;;60.13;53.05;;;;;;;;;;4972182;29;20043;-79
2022/02/10 00:23:11;;;;;;;63.83;56.00;;;;;;;;;;4970365;29;20087;-80
2022/02/10 00:43:10;;;;;;;64.65;55.20;;;;;;;;;;4964174;28;20090;-79
2022/02/10 00:57:48;;;;;;;64.43;54.22;;;;;;;;;;4964874;29;20074;-80
2022/02/10 01:13:52;;;;;;;68.32;55.20;;;;;;;;;;4976775;28;20085;-80
2022/02/10 01:24:34;;;;;;;65.82;55.63;;;;;;;;;;4976822;28;20018;-81
2022/02/10 01:29:45;;;;;;;73.43;57.03;;;;;;;;;;4969362;29;20050;-80
2022/02/10 01:32:11;;;;;;;66.35;55.95;;;;;;;;;;4956623;28;20144;-80
2022/02/10 01:34:47;;;;;;;73.63;58.97;;;;;;;;;;4961066;29;20509;-80
2022/02/10 01:37:13;;;;;;;61.53;53.92;;;;;;;;;;4957499;28;20281;-81
2022/02/10 01:39:44;;;;;;;68.82;55.25;;;;;;;;;;4955766;29;20024;-81
2022/02/10 02:03:46;;;;;;;71.90;56.35;;;;;;;;;;4964815;29;20027;-79
2022/02/10 02:06:20;;;;;;;64.63;55.60;;;;;;;;;;4959132;29;20023;-80
2022/02/10 02:08:45;;;;;;;66.95;56.15;;;;;;;;;;4976349;28;20455;-81
2022/02/10 02:11:10;;;;;;;65.20;56.10;;;;;;;;;;4956795;29;20054;-80
2022/02/10 02:13:35;;;;;;;64.13;54.73;;;;;;;;;;4957491;28;20027;-80
2022/02/10 02:16:01;;;;;;;65.10;57.07;;;;;;;;;;4956117;28;20055;-79
2022/02/10 02:18:26;;;;;;;63.47;56.60;;;;;;;;;;4956684;29;20483;-80
2022/02/10 02:20:53;;;;;;;67.93;57.10;;;;;;;;;;4956746;29;20281;-82
2022/02/10 02:23:18;;;;;;;;;;;;;;;;;;4958872;28;20055;-81
2022/02/10 02:25:46;;;;;;;68.22;55.90;;;;;;;;;;4953003;29;19910;-80
2022/02/10 02:28:12;;;;;;;72.95;58.00;;;;;;;;;;4959700;29;20023;-80
2022/02/10 03:04:12;;;;;;;68.20;57.53;;;;;;;;;;4959344;29;20574;-80
2022/02/10 03:06:27;;;;;;;61.60;54.80;;;;;;;;;;4949315;29;20083;-80
2022/02/10 03:08:57;;;;;;;60.65;54.40;;;;;;;;;;4958149;29;20102;-81
2022/02/10 03:11:22;;;;;;;60.85;54.58;;;;;;;;;;4956706;29;20034;-82
2022/02/10 03:19:03;;;;;;;59.50;53.13;;;;;;;;;;4975814;28;20058;-79
2022/02/10 04:01:21;;;;;;;56.10;50.47;;;;;;;;;;4976063;28;20033;-80
2022/02/10 04:03:25;;;;;;;59.33;52.47;;;;;;;;;;4968671;28;20113;-80
2022/02/10 04:16:19;;;;;;;58.95;52.22;;;;;;;;;;4972720;28;20038;-79
2022/02/10 04:19:29;;;;;;;57.25;51.38;;;;;;;;;;4975272;28;20122;-80
2022/02/10 04:29:36;;;;;;;57.25;51.15;;;;;;;;;;4976229;28;19913;-79
2022/02/10 04:40:58;;;;;;;57.90;51.65;;;;;;;;;;4973993;28;20029;-80
2022/02/10 04:43:16;;;;;;;65.57;53.53;;;;;;;;;;4976294;28;20018;-81
2022/02/10 04:59:38;;;;;;;61.58;53.85;;;;;;;;;;4992181;28;20046;-80
2022/02/10 05:04:43;;;;;;;58.58;52.20;;;;;;;;;;4984313;28;20046;-80
2022/02/10 05:23:14;;;;;;;64.53;54.28;;;;;;;;;;4940718;29;20030;-80
2022/02/10 05:33:57;;;;;;;59.53;53.13;;;;;;;;;;4990644;28;20030;-81
2022/02/10 05:36:26;;;;;;;60.70;54.17;;;;;;;;;;4990703;28;20085;-78
2022/02/10 05:39:01;;;;;;;66.65;55.22;;;;;;;;;;4992163;28;20033;-80
2022/02/10 05:41:56;;;;;;;61.78;54.20;;;;;;;;;;4993486;28;20069;-80
2022/02/10 05:44:34;;;;;;;59.03;52.97;;;;;;;;;;4984130;28;20026;-79
2022/02/10 05:57:32;;;;;;;62.92;55.05;;;;;;;;;;4980608;28;20170;-80
2022/02/10 06:38:03;;;;;;;63.28;55.83;;;;;;;;;;4975427;28;20030;-79
2022/02/10 06:43:09;;;;;;;57.47;51.72;;;;;;;;;;4996589;28;20110;-80
2022/02/10 06:54:43;;;;;;;59.13;52.97;;;;;;;;;;4986416;28;20014;-81
2022/02/10 07:03:00;;;;;;;58.20;52.40;;;;;;;;;;4987898;28;20049;-87
2022/02/10 07:06:07;;;;;;;67.25;54.83;;;;;;;;;;4979614;28;20417;-78
2022/02/10 07:08:52;;;;;;;58.88;52.67;;;;;;;;;;4978121;28;20102;-79
2022/02/10 07:47:04;;;;;;;59.05;52.70;;;;;;;;;;4970643;28;20456;-79
2022/02/10 07:49:36;;;;;;;58.50;52.58;;;;;;;;;;4973901;28;20074;-79
2022/02/10 07:55:17;;;;;;;60.63;54.03;;;;;;;;;;4978201;28;20125;-79
2022/02/10 07:57:45;;;;;;;59.30;53.03;;;;;;;;;;4971168;28;20566;-79
2022/02/10 09:00:28;;;;;;;59.42;53.08;;;;;;;;;;4969472;28;20027;-80
2022/02/10 09:11:26;;;;;;;59.00;52.67;;;;;;;;;;4978133;28;20513;-79
2022/02/10 09:14:03;;;;;;;58.78;52.72;;;;;;;;;;4979959;28;20484;-82
2022/02/10 09:57:29;;;;;;;58.25;52.42;;;;;;;;;;4927012;29;20027;-83
2022/02/10 10:02:43;;;;;;;59.58;53.45;;;;;;;;;;4927898;29;20059;-83
2022/02/10 10:05:31;;;;;;;60.97;54.20;;;;;;;;;;4941967;29;20068;-84
2022/02/10 10:10:47;;;;;;;57.30;51.70;;;;;;;;;;4918264;29;19930;-84
2022/02/10 10:21:09;;;;;;;57.38;51.80;;;;;;;;;;4936192;29;20032;-83
2022/02/10 10:50:41;;;;;;;61.13;53.22;;;;;;;;;;4921871;29;20049;-84
2022/02/10 11:37:38;;;;;;;58.97;52.90;;;;;;;;;;4891499;29;20008;-83
2022/02/10 11:40:14;;;;;;;57.38;51.78;;;;;;;;;;4892509;29;20043;-83
2022/02/10 11:42:47;;;;;;;60.03;53.80;;;;;;;;;;4931762;29;20075;-84
2022/02/10 11:45:55;;;;;;;58.10;52.08;;;;;;;;;;4941298;29;20031;-83
2022/02/10 13:31:44;;;;;;;56.10;50.17;;;;;;;;;;4919853;29;20038;-84
2022/02/10 14:09:18;;;;;;;55.83;50.45;;;;;;;;;;4926180;29;20075;-85
2022/02/10 14:14:35;;;;;;;56.05;49.88;;;;;;;;;;4936780;29;20016;-84
2022/02/10 14:17:03;;;;;;;56.70;50.63;;;;;;;;;;4937335;29;20043;-83
2022/02/10 14:19:38;;;;;;;57.45;51.22;;;;;;;;;;4943498;29;20025;-82
2022/02/10 14:22:21;;;;;;;67.00;51.75;;;;;;;;;;4934746;29;20020;-80
2022/02/10 14:27:30;;;;;;;56.72;50.58;;;;;;;;;;4938855;29;20031;-82
2022/02/10 14:29:56;;;;;;;55.73;49.87;;;;;;;;;;4952938;28;20020;-83
2022/02/10 14:32:26;;;;;;;58.60;52.13;;;;;;;;;;4943021;29;20044;-83
2022/02/10 14:34:54;;;;;;;53.92;48.92;;;;;;;;;;4958235;28;20020;-83
2022/02/10 14:42:43;;;;;;;55.92;50.10;;;;;;;;;;4942215;29;20076;-84
2022/02/10 16:17:06;;;;;;;54.33;48.80;;;;;;;;;;4959410;28;20035;-81
2022/02/10 16:19:32;;;;;;;;;;;;;;;;;;4960301;28;20051;-81
2022/02/10 16:22:06;;;;;;;54.35;49.30;;;;;;;;;;4958778;29;19913;-81
2022/02/10 16:24:45;;;;;;;54.55;49.10;;;;;;;;;;4959438;29;20034;-81
2022/02/10 16:27:17;;;;;;;59.42;51.85;;;;;;;;;;4954935;29;20027;-80
2022/02/10 16:29:43;;;;;;;55.03;49.55;;;;;;;;;;4970215;28;20479;-81
2022/02/10 16:32:09;;;;;;;55.77;49.73;;;;;;;;;;4987751;28;20047;-81
2022/02/10 16:34:34;;;;;;;54.75;49.40;;;;;;;;;;4962821;28;20623;-82
2022/02/10 16:37:00;;;;;;;56.17;50.30;;;;;;;;;;4960147;29;20032;-83
2022/02/10 16:39:26;;;;;;;;;;;;;;;;;;4968262;28;20090;-82
2022/02/10 16:41:52;;;;;;;53.63;48.08;;;;;;;;;;4966279;28;19910;-82
2022/02/10 16:44:18;;;;;;;55.22;49.50;;;;;;;;;;4969382;28;20253;-82
2022/02/10 16:46:43;;;;;;;54.65;49.30;;;;;;;;;;4967470;28;20110;-82
2022/02/10 16:49:08;;;;;;;58.53;51.37;;;;;;;;;;4959419;28;20063;-81
2022/02/10 16:51:36;;;;;;;54.70;49.07;;;;;;;;;;4956999;29;20413;-82
2022/02/10 16:54:17;;;;;;;55.22;49.60;;;;;;;;;;4958853;29;20054;-80
2022/02/10 16:57:00;;;;;;;54.78;49.05;;;;;;;;;;4954753;29;20030;-81
2022/02/10 17:05:04;;;;;;;55.55;49.85;;;;;;;;;;4977352;28;20022;-81
2022/02/10 17:18:50;;;;;;;64.35;53.22;;;;;;;;;;4969777;28;20161;-80
2022/02/10 17:21:27;;;;;;;125.93;61.05;;;;;;;;;;4971805;28;20035;-82
2022/02/10 17:29:38;;;;;;;62.22;51.28;;;;;;;;;;4958843;28;20039;-80
2022/02/10 17:32:21;;;;;;;65.85;52.90;;;;;;;;;;4962305;28;20039;-78
2022/02/10 17:45:26;;;;;;;57.67;50.72;;;;;;;;;;4972208;28;20038;-79
2022/02/10 17:53:25;;;;;;;59.90;51.22;;;;;;;;;;4960260;28;20094;-79
2022/02/10 17:55:52;;;;;;;82.55;57.08;;;;;;;;;;4965406;28;20218;-83
2022/02/10 17:58:22;;;;;;;;;;;;;;;;;;4959537;28;20074;-80
2022/02/10 18:00:50;;;;;;;60.63;50.58;;;;;;;;;;4964396;28;19910;-80
2022/02/10 18:03:15;;;;;;;59.13;50.63;;;;;;;;;;4965647;28;20043;-80
2022/02/10 18:08:10;;;;;;;55.93;50.53;;;;;;;;;;4964068;28;20035;-79
2022/02/10 18:15:38;;;;;;;66.15;52.70;;;;;;;;;;4970880;28;20394;-80
2022/02/10 18:18:09;;;;;;;56.25;50.25;;;;;;;;;;4964256;28;20022;-80
2022/02/10 18:20:40;;;;;;;56.67;50.38;;;;;;;;;;4960242;28;20517;-79
2022/02/10 18:23:14;;;;;;;59.80;51.20;;;;;;;;;;4960794;28;20063;-79
2022/02/10 18:25:50;;;;;;;59.83;49.67;;;;;;;;;;4961944;29;20572;-79
2022/02/10 18:28:29;;;;;;;55.65;49.88;;;;;;;;;;4959083;28;20030;-80
2022/02/10 18:34:05;;;;;;;58.83;50.80;;;;;;;;;;4954884;28;20039;-80
2022/02/10 19:08:58;;;;;;;54.47;48.65;;;;;;;;;;4958608;28;20482;-82
2022/02/10 19:11:23;;;;;;;53.10;47.75;;;;;;;;;;4958857;28;20023;-81
2022/02/10 19:13:53;;;;;;;55.87;49.60;;;;;;;;;;4977252;28;20035;-81
2022/02/10 19:16:18;;;;;;;59.05;52.17;;;;;;;;;;4958766;29;20031;-79
2022/02/10 19:18:43;;;;;;;55.53;49.27;;;;;;;;;;4956941;28;20473;-79
2022/02/10 19:21:08;;;;;;;57.30;50.20;;;;;;;;;;4956861;28;20046;-80
2022/02/10 19:23:33;;;;;;;53.07;48.20;;;;;;;;;;4961680;28;20054;-80
2022/02/10 19:25:58;;;;;;;55.15;49.40;;;;;;;;;;4960332;28;20068;-79
2022/02/10 19:28:24;;;;;;;53.93;48.63;;;;;;;;;;4954636;28;20527;-80
2022/02/10 19:30:49;;;;;;;55.33;49.63;;;;;;;;;;4958531;28;20086;-79
2022/02/10 19:33:16;;;;;;;54.58;48.85;;;;;;;;;;4958065;28;20015;-79
2022/02/10 19:35:46;;;;;;;55.92;49.92;;;;;;;;;;4958648;29;20236;-77
2022/02/10 19:38:16;;;;;;;54.25;48.70;;;;;;;;;;4954619;28;20023;-79
2022/02/10 19:40:42;;;;;;;56.53;50.15;;;;;;;;;;4957876;28;20065;-77
2022/02/10 19:43:08;;;;;;;56.78;50.63;;;;;;;;;;4956421;28;20027;-78
2022/02/10 19:45:33;;;;;;;54.47;48.72;;;;;;;;;;4959006;28;20031;-78
2022/02/10 19:47:59;;;;;;;55.43;49.43;;;;;;;;;;4957063;28;20019;-79
2022/02/10 19:50:27;;;;;;;57.97;51.13;;;;;;;;;;4956192;28;20027;-79
2022/02/10 19:52:55;;;;;;;57.15;50.28;;;;;;;;;;4957573;28;20054;-79
2022/02/10 19:55:23;;;;;;;60.28;51.40;;;;;;;;;;4956386;28;20492;-78
2022/02/10 19:57:50;;;;;;;58.08;50.50;;;;;;;;;;4951631;28;20433;-77
2022/02/10 20:00:20;;;;;;;56.58;50.75;;;;;;;;;;4957266;28;20030;-78
2022/02/10 20:02:45;;;;;;;63.00;51.95;;;;;;;;;;4958147;28;20246;-79
2022/02/10 20:05:10;;;;;;;58.50;49.77;;;;;;;;;;4958109;28;21064;-82
2022/02/10 20:07:40;;;;;;;64.43;53.20;;;;;;;;;;4953461;28;20026;-79
2022/02/10 20:10:07;;;;;;;56.17;50.08;;;;;;;;;;4955860;28;20019;-77
2022/02/10 20:12:32;;;;;;;57.40;49.72;;;;;;;;;;4955421;28;20035;-79
2022/02/10 20:14:57;;;;;;;59.83;52.20;;;;;;;;;;4955693;28;20031;-79
2022/02/10 20:17:23;;;;;;;61.40;51.40;;;;;;;;;;4949495;28;20555;-79
2022/02/10 20:19:48;;;;;;;56.50;49.23;;;;;;;;;;4955184;28;20023;-78
2022/02/10 20:22:14;;;;;;;60.67;49.27;;;;;;;;;;4946749;28;20396;-79
2022/02/10 20:24:40;;;;;;;58.28;50.50;;;;;;;;;;4952677;28;20155;-79
2022/02/10 20:27:05;;;;;;;91.97;60.63;;;;;;;;;;4950104;28;20032;-78
2022/02/10 20:29:30;;;;;;;55.80;49.63;;;;;;;;;;4947428;28;20120;-80
2022/02/10 20:31:56;;;;;;;55.40;49.17;;;;;;;;;;4953061;28;20122;-78
2022/02/10 20:34:22;;;;;;;58.97;51.27;;;;;;;;;;4952360;28;20556;-80
2022/02/10 20:36:47;;;;;;;57.50;50.83;;;;;;;;;;4950515;29;20043;-78
2022/02/10 20:39:17;;;;;;;56.53;50.28;;;;;;;;;;4949536;28;20182;-79
2022/02/10 20:41:49;;;;;;;62.80;51.53;;;;;;;;;;4953533;28;20090;-79
2022/02/10 20:44:14;;;;;;;54.22;48.65;;;;;;;;;;4954614;28;20396;-78
2022/02/10 20:46:42;;;;;;;65.90;52.07;;;;;;;;;;4952463;28;20059;-77
2022/02/10 20:49:15;;;;;;;84.50;59.00;;;;;;;;;;4945444;28;20158;-81
2022/02/10 20:51:40;;;;;;;99.13;61.72;;;;;;;;;;4934040;28;20051;-76
2022/02/10 20:54:06;;;;;;;91.00;59.20;;;;;;;;;;4944397;28;20063;-80
2022/02/10 20:56:31;;;;;;;68.47;53.57;;;;;;;;;;4949878;28;20034;-79
2022/02/10 20:58:59;;;;;;;60.10;51.47;;;;;;;;;;4953314;28;20039;-79
2022/02/10 21:01:24;;;;;;;57.85;50.70;;;;;;;;;;4941313;28;20051;-81
2022/02/10 21:03:53;;;;;;;54.87;49.17;;;;;;;;;;4955990;28;20034;-79
2022/02/10 21:09:13;;;;;;;56.63;49.75;;;;;;;;;;4946586;28;20094;-79
2022/02/10 21:11:38;;;;;;;60.47;50.05;;;;;;;;;;4958728;28;20438;-78
2022/02/10 21:14:07;;;;;;;54.40;48.93;;;;;;;;;;4956299;29;20051;-80
2022/02/10 21:16:32;;;;;;;56.70;50.38;;;;;;;;;;4953284;28;20039;-78
2022/02/10 21:18:58;;;;;;;54.07;48.60;;;;;;;;;;4951836;28;20366;-79
2022/02/10 21:21:24;;;;;;;58.47;49.73;;;;;;;;;;4954581;28;20114;-81
2022/02/10 21:26:32;;;;;;;55.08;49.28;;;;;;;;;;4967833;28;20047;-81
2022/02/10 21:29:01;;;;;;;56.50;50.42;;;;;;;;;;4974647;28;20075;-80
2022/02/10 21:31:27;;;;;;;53.80;48.25;;;;;;;;;;4974100;28;20055;-82
2022/02/10 21:34:11;;;;;;;55.38;49.47;;;;;;;;;;4974106;28;20063;-82
2022/02/10 21:36:56;;;;;;;60.05;49.95;;;;;;;;;;4974821;28;20026;-81
2022/02/10 21:39:32;;;;;;;56.35;50.15;;;;;;;;;;4972002;28;20023;-82
2022/02/10 21:45:50;;;;;;;62.55;50.85;;;;;;;;;;4971490;28;20573;-80
2022/02/10 22:01:43;;;;;;;61.03;51.35;;;;;;;;;;4956294;28;20031;-82
2022/02/10 22:06:31;;;;;;;64.75;51.17;;;;;;;;;;4955593;28;20047;-77
2022/02/10 22:19:19;;;;;;;59.47;50.45;;;;;;;;;;4966455;28;20030;-79
2022/02/10 22:21:51;;;;;;;62.45;52.20;;;;;;;;;;4968791;28;20111;-78
2022/02/10 22:24:18;;;;;;;66.35;51.90;;;;;;;;;;4968875;28;20055;-80
2022/02/10 22:26:44;;;;;;;;;;;;;;;;;;4976099;28;20055;-79
2022/02/10 22:29:16;;;;;;;53.22;47.92;;;;;;;;;;4979774;28;19942;-80
2022/02/10 22:34:26;;;;;;;54.90;48.63;;;;;;;;;;4967404;28;20023;-79
2022/02/10 22:36:58;;;;;;;54.70;49.10;;;;;;;;;;4967422;28;20019;-80
2022/02/10 22:39:23;;;;;;;54.63;49.08;;;;;;;;;;4966116;28;20030;-81
2022/02/10 22:41:48;;;;;;;54.50;48.80;;;;;;;;;;4968247;28;20075;-80
2022/02/10 22:44:14;;;;;;;57.27;49.83;;;;;;;;;;4967662;28;20031;-81
2022/02/10 22:46:39;;;;;;;58.35;49.53;;;;;;;;;;4965626;28;20038;-80
2022/02/10 22:49:05;;;;;;;54.13;48.40;;;;;;;;;;4970537;28;20038;-81
2022/02/10 22:51:32;;;;;;;55.60;49.50;;;;;;;;;;4970728;28;20027;-79
2022/02/10 22:53:57;;;;;;;53.92;48.35;;;;;;;;;;4974659;28;20015;-79
2022/02/10 22:56:28;;;;;;;54.47;49.07;;;;;;;;;;4967872;28;20038;-81
2022/02/10 22:58:58;;;;;;;52.45;47.45;;;;;;;;;;4968798;28;20019;-80
2022/02/10 23:01:23;;;;;;;52.90;47.72;;;;;;;;;;4967537;28;20027;-81
2022/02/10 23:03:48;;;;;;;53.77;48.50;;;;;;;;;;4988160;28;20050;-80
2022/02/10 23:06:16;;;;;;;53.77;48.20;;;;;;;;;;4991589;28;20043;-80
2022/02/10 23:08:42;;;;;;;55.20;49.30;;;;;;;;;;4969129;28;20098;-80
2022/02/10 23:11:07;;;;;;;53.13;47.53;;;;;;;;;;4970920;28;20057;-80
2022/02/10 23:13:34;;;;;;;54.47;48.90;;;;;;;;;;4977451;28;20030;-81
2022/02/10 23:15:59;;;;;;;;;;;;;;;;;;4961463;28;20043;-80
2022/02/10 23:18:25;;;;;;;54.28;48.78;;;;;;;;;;4974328;28;19910;-80
2022/02/10 23:20:51;;;;;;;53.45;47.97;;;;;;;;;;4973130;28;20106;-81
2022/02/10 23:23:18;;;;;;;63.05;50.78;;;;;;;;;;4969198;28;20027;-81
2022/02/10 23:25:44;;;;;;;56.75;50.60;;;;;;;;;;4979481;28;20054;-80
2022/02/10 23:28:14;;;;;;;54.25;48.78;;;;;;;;;;4980683;28;20058;-78
2022/02/10 23:30:40;;;;;;;55.13;49.63;;;;;;;;;;4970574;28;20003;-80
2022/02/10 23:33:18;;;;;;;55.58;49.42;;;;;;;;;;4971146;28;20076;-80
2022/02/10 23:38:09;;;;;;;52.70;47.60;;;;;;;;;;4976727;28;20108;-80
2022/02/10 23:40:43;;;;;;;53.80;48.10;;;;;;;;;;4975289;28;20027;-80
2022/02/10 23:43:09;;;;;;;54.63;48.75;;;;;;;;;;4962363;28;20055;-78
2022/02/10 23:45:40;;;;;;;109.63;65.00;;;;;;;;;;4952327;28;20063;-78
2022/02/10 23:48:05;;;;;;;54.13;47.97;;;;;;;;;;4951065;28;20027;-78
2022/02/10 23:50:30;;;;;;;54.13;48.40;;;;;;;;;;4959671;28;20027;-79
2022/02/10 23:52:57;;;;;;;57.67;49.50;;;;;;;;;;4984715;28;20099;-80
2022/02/10 23:55:32;;;;;;;;;;;;;;;;;;4984599;28;20030;-81
2022/02/10 23:58:09;;;;;;;54.30;48.85;;;;;;;;;;4994730;28;19922;-80
